createdAt,value
2018-07-20T00:00:33.890Z,1003.50
2018-07-20T00:01:33.538Z,1003.47
2018-07-20T00:02:33.518Z,1003.48
2018-07-20T00:03:33.512Z,1003.52
2018-07-20T00:04:33.540Z,1003.49
2018-07-20T00:05:33.505Z,1003.54
2018-07-20T00:06:33.520Z,1003.49
2018-07-20T00:07:33.498Z,1003.50
2018-07-20T00:08:33.490Z,1003.48
2018-07-20T00:09:33.479Z,1003.50
2018-07-20T00:10:33.473Z,1003.54
2018-07-20T00:11:33.517Z,1003.52
2018-07-20T00:12:33.464Z,1003.52
2018-07-20T00:13:33.449Z,1003.51
2018-07-20T00:14:33.457Z,1003.50
2018-07-20T00:15:33.435Z,1003.48
2018-07-20T00:16:33.485Z,1003.47
2018-07-20T00:17:33.427Z,1003.45
2018-07-20T00:18:33.415Z,1003.46
2018-07-20T00:19:33.412Z,1003.46
2018-07-20T00:20:33.418Z,1003.48
2018-07-20T00:21:33.405Z,1003.43
2018-07-20T00:22:33.417Z,1003.46
2018-07-20T00:23:33.386Z,1003.44
2018-07-20T00:24:33.374Z,1003.45
2018-07-20T00:25:33.369Z,1003.45
2018-07-20T00:26:33.368Z,1003.43
2018-07-20T00:27:33.397Z,1003.45
2018-07-20T00:28:33.349Z,1003.44
2018-07-20T00:29:33.347Z,1003.46
2018-07-20T00:30:33.328Z,1003.44
2018-07-20T00:31:33.325Z,1003.42
2018-07-20T00:32:33.356Z,1003.42
2018-07-20T00:33:33.312Z,1003.48
2018-07-20T00:34:33.312Z,1003.44
2018-07-20T00:35:33.291Z,1003.43
2018-07-20T00:36:33.300Z,1003.44
2018-07-20T00:37:33.337Z,1003.46
2018-07-20T00:38:33.355Z,1003.44
2018-07-20T00:39:33.271Z,1003.45
2018-07-20T00:40:33.269Z,1003.45
2018-07-20T00:41:33.253Z,1003.46
2018-07-20T00:42:33.255Z,1003.41
2018-07-20T00:43:33.243Z,1003.38
2018-07-20T00:44:33.247Z,1003.35
2018-07-20T00:45:33.260Z,1003.34
2018-07-20T00:46:33.242Z,1003.34
2018-07-20T00:47:33.235Z,1003.32
2018-07-20T00:48:33.199Z,1003.31
2018-07-20T00:49:33.219Z,1003.28
2018-07-20T00:50:33.190Z,1003.27
2018-07-20T00:51:33.196Z,1003.30
2018-07-20T00:52:33.195Z,1003.27
2018-07-20T00:53:33.179Z,1003.23
2018-07-20T00:54:33.195Z,1003.26
2018-07-20T00:55:33.163Z,1003.26
2018-07-20T00:56:33.151Z,1003.22
2018-07-20T00:57:33.147Z,1003.21
2018-07-20T00:58:33.133Z,1003.19
2018-07-20T00:59:33.149Z,1003.19
2018-07-20T01:00:33.113Z,1003.19
2018-07-20T01:01:33.112Z,1003.19
2018-07-20T01:02:33.103Z,1003.20
2018-07-20T01:03:33.139Z,1003.22
2018-07-20T01:04:33.091Z,1003.15
2018-07-20T01:05:33.246Z,1003.19
2018-07-20T01:06:33.075Z,1003.12
2018-07-20T01:07:33.078Z,1003.14
2018-07-20T01:08:33.052Z,1003.10
2018-07-20T01:09:33.124Z,1003.04
2018-07-20T01:10:33.038Z,1003.00
2018-07-20T01:11:33.030Z,1002.99
2018-07-20T01:12:33.036Z,1003.00
2018-07-20T01:13:33.026Z,1003.02
2018-07-20T01:14:33.014Z,1002.99
2018-07-20T01:15:33.074Z,1002.98
2018-07-20T01:16:33.018Z,1002.98
2018-07-20T01:17:32.994Z,1002.95
2018-07-20T01:18:32.985Z,1002.93
2018-07-20T01:19:32.985Z,1002.97
2018-07-20T01:20:32.961Z,1002.96
2018-07-20T01:21:32.982Z,1002.91
2018-07-20T01:22:32.956Z,1002.97
2018-07-20T01:23:32.938Z,1002.98
2018-07-20T01:24:32.971Z,1002.95
2018-07-20T01:25:32.927Z,1002.92
2018-07-20T01:26:32.920Z,1002.92
2018-07-20T01:27:32.915Z,1002.94
2018-07-20T01:28:32.975Z,1002.89
2018-07-20T01:29:32.947Z,1002.94
2018-07-20T01:30:32.890Z,1002.94
2018-07-20T01:31:32.893Z,1002.92
2018-07-20T01:32:32.896Z,1002.91
2018-07-20T01:33:32.873Z,1002.89
2018-07-20T01:34:32.900Z,1002.87
2018-07-20T01:35:32.909Z,1002.87
2018-07-20T01:36:32.849Z,1002.84
2018-07-20T01:37:32.853Z,1002.83
2018-07-20T01:38:32.833Z,1002.81
2018-07-20T01:39:32.822Z,1002.78
2018-07-20T01:40:32.816Z,1002.77
2018-07-20T01:41:32.828Z,1002.80
2018-07-20T01:42:32.803Z,1002.78
2018-07-20T01:43:32.792Z,1002.80
2018-07-20T01:44:32.787Z,1002.77
2018-07-20T01:45:32.850Z,1002.81
2018-07-20T01:46:32.762Z,1002.80
2018-07-20T01:47:32.769Z,1002.78
2018-07-20T01:48:32.778Z,1002.75
2018-07-20T01:49:32.741Z,1002.82
2018-07-20T01:50:32.750Z,1002.80
2018-07-20T01:51:32.756Z,1002.79
2018-07-20T01:52:32.746Z,1002.79
2018-07-20T01:53:32.714Z,1002.79
2018-07-20T01:54:32.722Z,1002.77
2018-07-20T01:55:32.711Z,1002.82
2018-07-20T01:56:33.058Z,1002.77
2018-07-20T01:57:32.683Z,1002.75
2018-07-20T01:58:32.689Z,1002.77
2018-07-20T01:59:32.676Z,1002.75
2018-07-20T02:00:32.666Z,1002.76
2018-07-20T02:01:32.673Z,1002.76
2018-07-20T02:02:32.686Z,1002.77
2018-07-20T02:03:32.644Z,1002.77
2018-07-20T02:04:32.631Z,1002.80
2018-07-20T02:05:32.628Z,1002.76
2018-07-20T02:06:32.620Z,1002.76
2018-07-20T02:07:32.639Z,1002.79
2018-07-20T02:08:32.611Z,1002.75
2018-07-20T02:09:32.660Z,1002.75
2018-07-20T02:10:32.601Z,1002.75
2018-07-20T02:11:32.604Z,1002.73
2018-07-20T02:12:32.579Z,1002.73
2018-07-20T02:13:32.568Z,1002.72
2018-07-20T02:14:32.562Z,1002.80
2018-07-20T02:15:32.590Z,1002.72
2018-07-20T02:16:32.545Z,1002.71
2018-07-20T02:17:32.536Z,1002.71
2018-07-20T02:18:32.548Z,1002.74
2018-07-20T02:19:32.561Z,1002.68
2018-07-20T02:20:32.515Z,1002.69
2018-07-20T02:21:32.540Z,1002.72
2018-07-20T02:22:32.506Z,1002.71
2018-07-20T02:23:32.491Z,1002.73
2018-07-20T02:24:32.547Z,1002.73
2018-07-20T02:25:32.479Z,1002.69
2018-07-20T02:26:32.470Z,1002.69
2018-07-20T02:27:32.468Z,1002.68
2018-07-20T02:28:32.454Z,1002.67
2018-07-20T02:29:32.837Z,1002.68
2018-07-20T02:30:32.438Z,1002.68
2018-07-20T02:31:32.436Z,1002.62
2018-07-20T02:32:32.427Z,1002.63
2018-07-20T02:33:32.424Z,1002.63
2018-07-20T02:34:32.421Z,1002.65
2018-07-20T02:35:32.426Z,1002.65
2018-07-20T02:36:32.400Z,1002.66
2018-07-20T02:37:32.392Z,1002.62
2018-07-20T02:38:32.386Z,1002.59
2018-07-20T02:39:32.368Z,1002.59
2018-07-20T02:40:32.367Z,1002.58
2018-07-20T02:41:32.367Z,1002.57
2018-07-20T02:42:32.358Z,1002.58
2018-07-20T02:43:32.348Z,1002.56
2018-07-20T02:44:32.336Z,1002.57
2018-07-20T02:45:32.335Z,1002.56
2018-07-20T02:46:32.348Z,1002.56
2018-07-20T02:47:32.312Z,1002.57
2018-07-20T02:48:32.298Z,1002.56
2018-07-20T02:49:32.298Z,1002.52
2018-07-20T02:50:32.299Z,1002.55
2018-07-20T02:51:32.282Z,1002.52
2018-07-20T02:52:32.322Z,1002.54
2018-07-20T02:53:32.269Z,1002.55
2018-07-20T02:54:32.265Z,1002.52
2018-07-20T02:55:32.245Z,1002.57
2018-07-20T02:56:32.237Z,1002.55
2018-07-20T02:57:32.265Z,1002.57
2018-07-20T02:58:32.218Z,1002.56
2018-07-20T02:59:32.214Z,1002.55
2018-07-20T03:00:32.208Z,1002.55
2018-07-20T03:01:32.208Z,1002.49
2018-07-20T03:02:32.189Z,1002.47
2018-07-20T03:03:32.184Z,1002.47
2018-07-20T03:04:32.178Z,1002.44
2018-07-20T03:05:32.189Z,1002.44
2018-07-20T03:06:32.163Z,1002.48
2018-07-20T03:07:32.156Z,1002.42
2018-07-20T03:08:32.155Z,1002.44
2018-07-20T03:09:32.138Z,1002.41
2018-07-20T03:10:32.128Z,1002.43
2018-07-20T03:11:32.111Z,1002.42
2018-07-20T03:12:32.127Z,1002.44
2018-07-20T03:13:32.161Z,1002.41
2018-07-20T03:14:32.094Z,1002.45
2018-07-20T03:15:32.091Z,1002.42
2018-07-20T03:16:32.080Z,1002.43
2018-07-20T03:17:32.080Z,1002.45
2018-07-20T03:18:32.064Z,1002.44
2018-07-20T03:19:32.106Z,1002.45
2018-07-20T03:20:32.080Z,1002.47
2018-07-20T03:21:32.056Z,1002.47
2018-07-20T03:22:32.047Z,1002.49
2018-07-20T03:23:32.043Z,1002.48
2018-07-20T03:24:32.059Z,1002.47
2018-07-20T03:25:32.007Z,1002.48
2018-07-20T03:26:32.007Z,1002.45
2018-07-20T03:27:31.985Z,1002.43
2018-07-20T03:28:31.989Z,1002.41
2018-07-20T03:29:31.988Z,1002.42
2018-07-20T03:30:31.976Z,1002.43
2018-07-20T03:31:31.975Z,1002.43
2018-07-20T03:32:31.963Z,1002.42
2018-07-20T03:33:31.950Z,1002.42
2018-07-20T03:34:31.936Z,1002.46
2018-07-20T03:35:31.960Z,1002.43
2018-07-20T03:36:31.927Z,1002.42
2018-07-20T03:37:31.917Z,1002.44
2018-07-20T03:38:31.909Z,1002.44
2018-07-20T03:39:31.898Z,1002.46
2018-07-20T03:40:31.893Z,1002.41
2018-07-20T03:41:31.895Z,1002.42
2018-07-20T03:42:31.882Z,1002.39
2018-07-20T03:43:31.872Z,1002.42
2018-07-20T03:44:31.852Z,1002.42
2018-07-20T03:45:31.872Z,1002.36
2018-07-20T03:46:31.849Z,1002.37
2018-07-20T03:47:31.832Z,1002.38
2018-07-20T03:48:31.827Z,1002.37
2018-07-20T03:49:31.820Z,1002.32
2018-07-20T03:50:31.850Z,1002.32
2018-07-20T03:51:31.808Z,1002.32
2018-07-20T03:52:31.805Z,1002.34
2018-07-20T03:53:31.784Z,1002.33
2018-07-20T03:54:31.768Z,1002.33
2018-07-20T03:55:31.805Z,1002.30
2018-07-20T03:56:31.767Z,1002.29
2018-07-20T03:57:31.749Z,1002.26
2018-07-20T03:58:31.760Z,1002.23
2018-07-20T03:59:32.870Z,1002.27
2018-07-20T04:00:31.721Z,1002.24
2018-07-20T04:01:31.709Z,1002.22
2018-07-20T04:02:31.726Z,1002.25
2018-07-20T04:03:31.704Z,1002.27
2018-07-20T04:04:31.731Z,1002.28
2018-07-20T04:05:31.689Z,1002.28
2018-07-20T04:06:31.685Z,1002.25
2018-07-20T04:07:31.673Z,1002.24
2018-07-20T04:08:31.659Z,1002.22
2018-07-20T04:09:31.680Z,1002.20
2018-07-20T04:10:31.640Z,1002.18
2018-07-20T04:11:31.633Z,1002.18
2018-07-20T04:12:31.634Z,1002.18
2018-07-20T04:13:31.616Z,1002.21
2018-07-20T04:14:31.631Z,1002.19
2018-07-20T04:15:31.608Z,1002.17
2018-07-20T04:16:31.601Z,1002.15
2018-07-20T04:17:31.589Z,1002.15
2018-07-20T04:18:31.588Z,1002.15
2018-07-20T04:19:31.623Z,1002.19
2018-07-20T04:20:31.559Z,1002.18
2018-07-20T04:21:31.561Z,1002.23
2018-07-20T04:22:31.544Z,1002.24
2018-07-20T04:23:31.541Z,1002.23
2018-07-20T04:24:31.557Z,1002.25
2018-07-20T04:25:31.533Z,1002.23
2018-07-20T04:26:31.513Z,1002.27
2018-07-20T04:27:31.501Z,1002.28
2018-07-20T04:28:31.521Z,1002.28
2018-07-20T04:29:32.739Z,1002.29
2018-07-20T04:30:31.478Z,1002.29
2018-07-20T04:31:31.481Z,1002.26
2018-07-20T04:32:31.455Z,1002.29
2018-07-20T04:33:31.483Z,1002.30
2018-07-20T04:34:31.446Z,1002.32
2018-07-20T04:35:31.441Z,1002.30
2018-07-20T04:36:31.511Z,1002.32
2018-07-20T04:37:31.423Z,1002.27
2018-07-20T04:38:31.480Z,1002.32
2018-07-20T04:39:31.397Z,1002.28
2018-07-20T04:40:31.402Z,1002.32
2018-07-20T04:41:31.384Z,1002.33
2018-07-20T04:42:31.388Z,1002.32
2018-07-20T04:43:31.379Z,1002.31
2018-07-20T04:44:31.400Z,1002.29
2018-07-20T04:45:31.389Z,1002.25
2018-07-20T04:46:31.362Z,1002.28
2018-07-20T04:47:31.341Z,1002.24
2018-07-20T04:48:31.347Z,1002.22
2018-07-20T04:49:31.337Z,1002.21
2018-07-20T04:50:31.353Z,1002.24
2018-07-20T04:51:31.313Z,1002.24
2018-07-20T04:52:31.313Z,1002.25
2018-07-20T04:53:31.299Z,1002.28
2018-07-20T04:54:31.291Z,1002.27
2018-07-20T04:55:31.310Z,1002.27
2018-07-20T04:56:31.273Z,1002.28
2018-07-20T04:57:31.270Z,1002.25
2018-07-20T04:58:31.261Z,1002.29
2018-07-20T04:59:31.417Z,1002.24
2018-07-20T05:00:31.304Z,1002.26
2018-07-20T05:01:31.238Z,1002.24
2018-07-20T05:02:31.234Z,1002.26
2018-07-20T05:03:31.226Z,1002.24
2018-07-20T05:04:31.220Z,1002.26
2018-07-20T05:05:31.208Z,1002.27
2018-07-20T05:06:31.224Z,1002.25
2018-07-20T05:07:31.186Z,1002.24
2018-07-20T05:08:31.250Z,1002.28
2018-07-20T05:09:31.174Z,1002.23
2018-07-20T05:10:31.168Z,1002.23
2018-07-20T05:11:31.188Z,1002.24
2018-07-20T05:12:31.152Z,1002.18
2018-07-20T05:13:31.144Z,1002.20
2018-07-20T05:14:31.142Z,1002.14
2018-07-20T05:15:31.126Z,1002.16
2018-07-20T05:16:31.129Z,1002.13
2018-07-20T05:17:31.107Z,1002.14
2018-07-20T05:18:31.138Z,1002.09
2018-07-20T05:19:31.092Z,1002.11
2018-07-20T05:20:31.084Z,1002.12
2018-07-20T05:21:31.079Z,1002.13
2018-07-20T05:22:31.075Z,1002.11
2018-07-20T05:23:31.118Z,1002.11
2018-07-20T05:24:31.056Z,1002.12
2018-07-20T05:25:31.053Z,1002.08
2018-07-20T05:26:31.046Z,1002.08
2018-07-20T05:27:31.031Z,1002.09
2018-07-20T05:28:31.019Z,1002.05
2018-07-20T05:29:31.377Z,1002.07
2018-07-20T05:30:31.013Z,1002.07
2018-07-20T05:31:31.021Z,1002.04
2018-07-20T05:32:31.005Z,1002.08
2018-07-20T05:33:30.998Z,1002.09
2018-07-20T05:34:31.012Z,1002.08
2018-07-20T05:35:30.967Z,1002.08
2018-07-20T05:36:30.955Z,1002.10
2018-07-20T05:37:30.966Z,1002.09
2018-07-20T05:38:31.007Z,1002.07
2018-07-20T05:39:30.946Z,1002.09
2018-07-20T05:40:30.948Z,1002.08
2018-07-20T05:41:30.933Z,1002.10
2018-07-20T05:42:30.928Z,1002.09
2018-07-20T05:43:30.906Z,1002.06
2018-07-20T05:44:30.924Z,1002.08
2018-07-20T05:45:30.894Z,1002.04
2018-07-20T05:46:30.917Z,1002.01
2018-07-20T05:47:30.887Z,1002.01
2018-07-20T05:48:30.876Z,1002.02
2018-07-20T05:49:30.902Z,1002.01
2018-07-20T05:50:30.890Z,1002.02
2018-07-20T05:51:30.844Z,1001.97
2018-07-20T05:52:30.849Z,1002.01
2018-07-20T05:53:30.883Z,1002.01
2018-07-20T05:54:30.852Z,1002.00
2018-07-20T05:55:30.862Z,1001.95
2018-07-20T05:56:30.827Z,1001.96
2018-07-20T05:57:30.811Z,1001.93
2018-07-20T05:58:30.815Z,1001.92
2018-07-20T05:59:30.856Z,1001.95
2018-07-20T06:00:30.793Z,1001.96
2018-07-20T06:01:30.780Z,1001.94
2018-07-20T06:02:30.770Z,1001.93
2018-07-20T06:03:30.761Z,1002.02
2018-07-20T06:04:30.757Z,1002.02
2018-07-20T06:05:30.824Z,1002.03
2018-07-20T06:06:30.739Z,1002.04
2018-07-20T06:07:30.735Z,1002.04
2018-07-20T06:08:30.729Z,1002.01
2018-07-20T06:09:30.731Z,1002.01
2018-07-20T06:10:30.712Z,1002.01
2018-07-20T06:11:30.713Z,1002.04
2018-07-20T06:12:30.687Z,1002.07
2018-07-20T06:13:30.685Z,1002.04
2018-07-20T06:14:30.684Z,1002.07
2018-07-20T06:15:30.664Z,1002.06
2018-07-20T06:16:31.031Z,1002.09
2018-07-20T06:17:30.656Z,1002.10
2018-07-20T06:18:30.657Z,1002.11
2018-07-20T06:19:30.646Z,1002.13
2018-07-20T06:20:30.638Z,1002.11
2018-07-20T06:21:30.677Z,1002.13
2018-07-20T06:22:30.664Z,1002.13
2018-07-20T06:23:30.644Z,1002.14
2018-07-20T06:24:30.642Z,1002.13
2018-07-20T06:25:30.607Z,1002.14
2018-07-20T06:26:30.592Z,1002.14
2018-07-20T06:27:30.645Z,1002.17
2018-07-20T06:28:30.589Z,1002.15
2018-07-20T06:29:30.857Z,1002.14
2018-07-20T06:30:30.581Z,1002.10
2018-07-20T06:31:30.588Z,1002.09
2018-07-20T06:32:30.561Z,1002.13
2018-07-20T06:33:30.584Z,1002.10
2018-07-20T06:34:30.540Z,1002.11
2018-07-20T06:35:30.593Z,1002.12
2018-07-20T06:36:30.532Z,1002.12
2018-07-20T06:37:30.522Z,1002.11
2018-07-20T06:38:30.508Z,1002.15
2018-07-20T06:39:30.505Z,1002.13
2018-07-20T06:40:30.501Z,1002.13
2018-07-20T06:41:30.492Z,1002.11
2018-07-20T06:42:30.487Z,1002.13
2018-07-20T06:43:30.478Z,1002.09
2018-07-20T06:44:30.473Z,1002.06
2018-07-20T06:45:30.458Z,1002.10
2018-07-20T06:46:30.516Z,1002.08
2018-07-20T06:47:30.472Z,1002.13
2018-07-20T06:48:30.447Z,1002.13
2018-07-20T06:49:30.455Z,1002.10
2018-07-20T06:50:30.444Z,1002.14
2018-07-20T06:51:30.438Z,1002.12
2018-07-20T06:52:30.461Z,1002.08
2018-07-20T06:53:30.421Z,1002.11
2018-07-20T06:54:30.413Z,1002.12
2018-07-20T06:55:30.409Z,1002.10
2018-07-20T06:56:30.394Z,1002.12
2018-07-20T06:57:30.417Z,1002.12
2018-07-20T06:58:30.391Z,1002.12
2018-07-20T06:59:30.376Z,1002.09
2018-07-20T07:00:30.367Z,1002.12
2018-07-20T07:01:30.364Z,1002.14
2018-07-20T07:02:30.380Z,1002.13
2018-07-20T07:03:30.400Z,1002.13
2018-07-20T07:04:30.335Z,1002.18
2018-07-20T07:05:30.339Z,1002.15
2018-07-20T07:06:30.327Z,1002.12
2018-07-20T07:07:30.317Z,1002.12
2018-07-20T07:08:30.316Z,1002.10
2018-07-20T07:09:30.428Z,1002.08
2018-07-20T07:10:30.304Z,1002.09
2018-07-20T07:11:30.323Z,1002.09
2018-07-20T07:12:30.281Z,1002.09
2018-07-20T07:13:30.283Z,1002.07
2018-07-20T07:14:30.311Z,1002.03
2018-07-20T07:15:30.274Z,1001.99
2018-07-20T07:16:30.271Z,1002.01
2018-07-20T07:17:30.258Z,1002.00
2018-07-20T07:18:30.247Z,1002.04
2018-07-20T07:19:30.280Z,1002.05
2018-07-20T07:20:30.271Z,1002.08
2018-07-20T07:21:30.240Z,1002.07
2018-07-20T07:22:30.531Z,1002.06
2018-07-20T07:23:30.215Z,1002.05
2018-07-20T07:24:30.232Z,1002.04
2018-07-20T07:25:30.232Z,1001.99
2018-07-20T07:26:30.190Z,1002.03
2018-07-20T07:27:30.187Z,1001.98
2018-07-20T07:28:30.234Z,1001.98
2018-07-20T07:29:30.176Z,1002.01
2018-07-20T07:30:30.198Z,1001.99
2018-07-20T07:31:30.180Z,1001.99
2018-07-20T07:32:30.180Z,1002.00
2018-07-20T07:33:30.151Z,1002.00
2018-07-20T07:34:30.154Z,1002.02
2018-07-20T07:35:30.187Z,1002.01
2018-07-20T07:36:30.139Z,1001.99
2018-07-20T07:37:30.157Z,1002.00
2018-07-20T07:38:30.131Z,1001.98
2018-07-20T07:39:30.127Z,1001.97
2018-07-20T07:40:30.132Z,1001.97
2018-07-20T07:41:30.121Z,1001.95
2018-07-20T07:42:30.136Z,1001.93
2018-07-20T07:43:30.090Z,1001.94
2018-07-20T07:44:30.112Z,1001.95
2018-07-20T07:45:30.182Z,1001.96
2018-07-20T07:46:30.081Z,1001.95
2018-07-20T07:47:30.099Z,1001.98
2018-07-20T07:48:30.068Z,1001.93
2018-07-20T07:49:30.071Z,1001.95
2018-07-20T07:50:30.124Z,1001.93
2018-07-20T07:51:30.050Z,1001.92
2018-07-20T07:52:30.039Z,1001.95
2018-07-20T07:53:30.041Z,1001.94
2018-07-20T07:54:30.035Z,1001.93
2018-07-20T07:55:30.035Z,1001.94
2018-07-20T07:56:30.063Z,1001.91
2018-07-20T07:57:30.065Z,1001.89
2018-07-20T07:58:30.020Z,1001.94
2018-07-20T07:59:30.012Z,1001.88
2018-07-20T08:00:30.002Z,1001.90
2018-07-20T08:01:30.028Z,1001.88
2018-07-20T08:02:29.987Z,1001.87
2018-07-20T08:03:30.072Z,1001.87
2018-07-20T08:04:29.995Z,1001.86
2018-07-20T08:05:29.969Z,1001.85
2018-07-20T08:06:29.978Z,1001.84
2018-07-20T08:07:29.961Z,1001.86
2018-07-20T08:08:29.967Z,1001.81
2018-07-20T08:09:29.955Z,1001.81
2018-07-20T08:10:29.961Z,1001.76
2018-07-20T08:11:29.935Z,1001.77
2018-07-20T08:12:29.932Z,1001.75
2018-07-20T08:13:30.286Z,1001.81
2018-07-20T08:14:29.912Z,1001.80
2018-07-20T08:15:29.933Z,1001.77
2018-07-20T08:16:29.911Z,1001.78
2018-07-20T08:17:29.906Z,1001.81
2018-07-20T08:18:29.966Z,1001.78
2018-07-20T08:19:29.918Z,1001.77
2018-07-20T08:20:29.893Z,1001.78
2018-07-20T08:21:29.960Z,1001.79
2018-07-20T08:22:29.903Z,1001.78
2018-07-20T08:23:29.875Z,1001.79
2018-07-20T08:24:29.869Z,1001.77
2018-07-20T08:25:29.862Z,1001.77
2018-07-20T08:26:29.868Z,1001.77
2018-07-20T08:27:29.878Z,1001.84
2018-07-20T08:28:29.861Z,1001.81
2018-07-20T08:29:29.922Z,1001.82
2018-07-20T08:30:29.852Z,1001.79
2018-07-20T08:31:29.828Z,1001.81
2018-07-20T08:32:29.824Z,1001.85
2018-07-20T08:33:29.850Z,1001.79
2018-07-20T08:34:29.816Z,1001.79
2018-07-20T08:35:29.834Z,1001.77
2018-07-20T08:36:29.814Z,1001.77
2018-07-20T08:37:29.799Z,1001.80
2018-07-20T08:38:29.805Z,1001.82
2018-07-20T08:39:29.797Z,1001.82
2018-07-20T08:40:29.824Z,1001.82
2018-07-20T08:41:29.775Z,1001.82
2018-07-20T08:42:29.802Z,1001.81
2018-07-20T08:43:29.780Z,1001.80
2018-07-20T08:44:29.776Z,1001.75
2018-07-20T08:45:29.778Z,1001.75
2018-07-20T08:46:29.829Z,1001.72
2018-07-20T08:47:29.759Z,1001.71
2018-07-20T08:48:29.745Z,1001.71
2018-07-20T08:49:29.753Z,1001.73
2018-07-20T08:50:29.812Z,1001.69
2018-07-20T08:51:30.098Z,1001.65
2018-07-20T08:52:30.059Z,1001.69
2018-07-20T08:53:30.468Z,1001.71
2018-07-20T08:54:29.728Z,1001.74
2018-07-20T08:55:29.734Z,1001.75
2018-07-20T08:56:29.731Z,1001.75
2018-07-20T08:57:29.759Z,1001.76
2018-07-20T08:58:29.706Z,1001.77
2018-07-20T08:59:29.715Z,1001.75
2018-07-20T09:00:29.705Z,1001.78
2018-07-20T09:01:29.761Z,1001.81
2018-07-20T09:02:29.711Z,1001.87
2018-07-20T09:03:29.726Z,1001.84
2018-07-20T09:04:29.701Z,1001.84
2018-07-20T09:05:29.708Z,1001.85
2018-07-20T09:06:29.746Z,1001.79
2018-07-20T09:07:29.742Z,1001.77
2018-07-20T09:08:29.738Z,1001.79
2018-07-20T09:09:29.704Z,1001.80
2018-07-20T09:10:29.711Z,1001.78
2018-07-20T09:11:29.738Z,1001.81
2018-07-20T09:12:29.716Z,1001.83
2018-07-20T09:13:29.742Z,1001.83
2018-07-20T09:14:29.710Z,1001.84
2018-07-20T09:15:29.712Z,1001.90
2018-07-20T09:16:29.718Z,1001.86
2018-07-20T09:17:29.793Z,1001.91
2018-07-20T09:18:29.709Z,1001.90
2018-07-20T09:19:29.719Z,1001.88
2018-07-20T09:20:29.774Z,1001.86
2018-07-20T09:21:29.718Z,1001.89
2018-07-20T09:22:29.726Z,1001.89
2018-07-20T09:23:29.813Z,1001.88
2018-07-20T09:24:29.742Z,1001.85
2018-07-20T09:25:29.738Z,1001.81
2018-07-20T09:26:29.757Z,1001.85
2018-07-20T09:27:29.740Z,1001.85
2018-07-20T09:28:29.754Z,1001.85
2018-07-20T09:29:29.785Z,1001.83
2018-07-20T09:30:29.762Z,1001.83
2018-07-20T09:31:29.757Z,1001.88
2018-07-20T09:32:29.764Z,1001.87
2018-07-20T09:33:29.893Z,1001.87
2018-07-20T09:34:30.072Z,1001.87
2018-07-20T09:35:30.008Z,1001.87
2018-07-20T09:36:29.986Z,1001.85
2018-07-20T09:37:29.892Z,1001.83
2018-07-20T09:38:29.892Z,1001.78
2018-07-20T09:39:29.914Z,1001.78
2018-07-20T09:40:30.018Z,1001.75
2018-07-20T09:41:29.963Z,1001.73
2018-07-20T09:42:29.967Z,1001.73
2018-07-20T09:43:29.975Z,1001.76
2018-07-20T09:44:29.942Z,1001.73
2018-07-20T09:45:30.109Z,1001.73
2018-07-20T09:46:30.189Z,1001.76
2018-07-20T09:47:30.149Z,1001.76
2018-07-20T09:48:30.045Z,1001.76
2018-07-20T09:49:30.027Z,1001.76
2018-07-20T09:50:29.929Z,1001.74
2018-07-20T09:51:29.867Z,1001.81
2018-07-20T09:52:29.872Z,1001.80
2018-07-20T09:53:29.885Z,1001.78
2018-07-20T09:54:29.892Z,1001.78
2018-07-20T09:55:29.885Z,1001.81
2018-07-20T09:56:29.891Z,1001.79
2018-07-20T09:57:29.907Z,1001.76
2018-07-20T09:58:29.924Z,1001.75
2018-07-20T09:59:30.096Z,1001.78
2018-07-20T10:00:29.950Z,1001.77
2018-07-20T10:01:29.925Z,1001.78
2018-07-20T10:02:29.945Z,1001.75
2018-07-20T10:03:29.950Z,1001.74
2018-07-20T10:04:29.944Z,1001.76
2018-07-20T10:05:30.687Z,1001.74
2018-07-20T10:06:30.002Z,1001.73
2018-07-20T10:07:29.982Z,1001.78
2018-07-20T10:08:29.979Z,1001.80
2018-07-20T10:09:29.993Z,1001.76
2018-07-20T10:10:29.990Z,1001.75
2018-07-20T10:11:30.310Z,1001.75
2018-07-20T10:12:31.736Z,1001.73
2018-07-20T10:13:30.010Z,1001.75
2018-07-20T10:14:30.018Z,1001.76
2018-07-20T10:15:30.046Z,1001.74
2018-07-20T10:16:30.034Z,1001.71
2018-07-20T10:17:30.054Z,1001.70
2018-07-20T10:18:30.048Z,1001.73
2018-07-20T10:19:30.046Z,1001.68
2018-07-20T10:20:30.057Z,1001.72
2018-07-20T10:21:30.113Z,1001.74
2018-07-20T10:22:30.093Z,1001.74
2018-07-20T10:23:30.089Z,1001.75
2018-07-20T10:24:30.097Z,1001.77
2018-07-20T10:25:30.146Z,1001.76
2018-07-20T10:26:30.119Z,1001.78
2018-07-20T10:27:30.166Z,1001.82
2018-07-20T10:28:30.122Z,1001.76
2018-07-20T10:29:30.127Z,1001.76
2018-07-20T10:30:30.145Z,1001.74
2018-07-20T10:31:30.144Z,1001.79
2018-07-20T10:32:30.154Z,1001.75
2018-07-20T10:33:30.199Z,1001.74
2018-07-20T10:34:30.174Z,1001.72
2018-07-20T10:35:30.208Z,1001.75
2018-07-20T10:36:30.190Z,1001.81
2018-07-20T10:37:30.227Z,1001.83
2018-07-20T10:38:30.204Z,1001.90
2018-07-20T10:39:30.224Z,1002.00
2018-07-20T10:40:30.221Z,1002.45
2018-07-20T10:41:30.234Z,1002.69
2018-07-20T10:42:30.241Z,1002.15
2018-07-20T10:43:30.307Z,1001.92
2018-07-20T10:44:30.256Z,1001.95
2018-07-20T10:45:30.266Z,1001.95
2018-07-20T10:46:30.283Z,1001.90
2018-07-20T10:47:30.278Z,1001.88
2018-07-20T10:48:30.302Z,1001.92
2018-07-20T10:49:30.311Z,1001.94
2018-07-20T10:50:30.317Z,1001.90
2018-07-20T10:51:30.318Z,1001.81
2018-07-20T10:52:30.328Z,1002.37
2018-07-20T10:53:30.324Z,1001.68
2018-07-20T10:54:30.353Z,1001.45
2018-07-20T10:55:30.344Z,1001.50
2018-07-20T10:56:30.347Z,1001.42
2018-07-20T10:57:30.377Z,1001.55
2018-07-20T10:58:30.386Z,1001.68
2018-07-20T10:59:30.459Z,1001.68
2018-07-20T11:00:30.400Z,1001.75
2018-07-20T11:01:30.464Z,1001.81
2018-07-20T11:02:30.404Z,1001.82
2018-07-20T11:03:30.400Z,1001.87
2018-07-20T11:04:30.425Z,1001.86
2018-07-20T11:05:30.475Z,1001.86
2018-07-20T11:06:30.453Z,1001.79
2018-07-20T11:07:30.436Z,1001.54
2018-07-20T11:08:30.461Z,1001.54
2018-07-20T11:09:30.476Z,1001.59
2018-07-20T11:10:30.473Z,1001.52
2018-07-20T11:11:30.495Z,1001.66
2018-07-20T11:12:30.476Z,1001.49
2018-07-20T11:13:30.487Z,1001.70
2018-07-20T11:14:30.481Z,1001.27
2018-07-20T11:15:30.493Z,1001.46
2018-07-20T11:16:30.529Z,1001.47
2018-07-20T11:17:30.542Z,1001.60
2018-07-20T11:18:30.525Z,1001.73
2018-07-20T11:19:30.515Z,1001.82
2018-07-20T11:20:30.515Z,1001.81
2018-07-20T11:21:30.553Z,1001.78
2018-07-20T11:22:37.288Z,1001.80
2018-07-20T11:23:30.537Z,1001.84
2018-07-20T11:24:30.538Z,1001.69
2018-07-20T11:25:30.547Z,1001.66
2018-07-20T11:26:30.572Z,1001.71
2018-07-20T11:27:30.766Z,1001.66
2018-07-20T11:28:30.568Z,1001.62
2018-07-20T11:29:30.586Z,1001.61
2018-07-20T11:30:30.628Z,1001.00
2018-07-20T11:31:30.600Z,1001.54
2018-07-20T11:32:30.590Z,1001.54
2018-07-20T11:33:30.609Z,1001.56
2018-07-20T11:34:30.609Z,1001.56
2018-07-20T11:35:30.619Z,1001.52
2018-07-20T11:36:30.640Z,1001.40
2018-07-20T11:37:30.634Z,1001.41
2018-07-20T11:38:30.851Z,1001.51
2018-07-20T11:39:30.643Z,1001.55
2018-07-20T11:40:30.646Z,1001.58
2018-07-20T11:41:30.707Z,1001.56
2018-07-20T11:42:30.660Z,1001.59
2018-07-20T11:43:30.720Z,1001.57
2018-07-20T11:44:30.678Z,1001.61
2018-07-20T11:45:30.680Z,1001.61
2018-07-20T11:46:30.681Z,1001.63
2018-07-20T11:47:30.722Z,1001.64
2018-07-20T11:48:30.703Z,1001.60
2018-07-20T11:49:30.724Z,1001.52
2018-07-20T11:50:30.716Z,1000.96
2018-07-20T11:51:30.758Z,1001.33
2018-07-20T11:52:30.754Z,1001.45
2018-07-20T11:53:30.741Z,1001.46
2018-07-20T11:54:30.756Z,1001.48
2018-07-20T11:55:30.814Z,1001.47
2018-07-20T11:56:30.771Z,1001.48
2018-07-20T11:57:30.770Z,1001.31
2018-07-20T11:58:30.781Z,1001.08
2018-07-20T11:59:30.783Z,1000.84
2018-07-20T12:00:30.800Z,1000.84
2018-07-20T12:01:30.821Z,1000.82
2018-07-20T12:02:30.814Z,1000.80
2018-07-20T12:03:30.814Z,1000.93
2018-07-20T12:04:30.817Z,1000.83
2018-07-20T12:05:30.874Z,1000.87